sensor_id;sensor_type;location;lat;lon;timestamp;P1;durP1;ratioP1;P2;durP2;ratioP2
47539;SDS011;33280;52.152;21.052;2023-07-29T11:32:53;3.28;;;2.60;;
47539;SDS011;33280;52.152;21.052;2023-07-29T12:47:06;2.40;;;2.20;;
47539;SDS011;33280;52.152;21.052;2023-07-29T12:50:05;5.15;;;2.20;;
47539;SDS011;33280;52.152;21.052;2023-07-29T12:53:37;2.45;;;2.25;;
47539;SDS011;33280;52.152;21.052;2023-07-29T12:56:08;3.35;;;2.38;;
47539;SDS011;33280;52.152;21.052;2023-07-29T12:58:39;2.63;;;2.42;;
47539;SDS011;33280;52.152;21.052;2023-07-29T13:06:57;3.03;;;2.20;;
47539;SDS011;33280;52.152;21.052;2023-07-29T13:09:25;4.38;;;2.22;;
47539;SDS011;33280;52.152;21.052;2023-07-29T13:11:52;2.42;;;2.22;;
47539;SDS011;33280;52.152;21.052;2023-07-29T13:14:19;3.45;;;2.45;;
47539;SDS011;33280;52.152;21.052;2023-07-29T13:16:47;4.35;;;2.45;;
47539;SDS011;33280;52.152;21.052;2023-07-29T13:19:14;2.70;;;2.50;;
47539;SDS011;33280;52.152;21.052;2023-07-29T13:21:41;2.38;;;2.10;;
47539;SDS011;33280;52.152;21.052;2023-07-29T13:24:08;2.40;;;2.20;;
47539;SDS011;33280;52.152;21.052;2023-07-29T13:26:35;2.50;;;2.30;;
47539;SDS011;33280;52.152;21.052;2023-07-29T13:29:02;2.83;;;2.08;;
47539;SDS011;33280;52.152;21.052;2023-07-29T13:31:34;3.13;;;2.15;;
47539;SDS011;33280;52.152;21.052;2023-07-29T13:34:01;2.65;;;2.30;;
47539;SDS011;33280;52.152;21.052;2023-07-29T13:36:28;3.08;;;2.47;;
47539;SDS011;33280;52.152;21.052;2023-07-29T13:38:55;3.55;;;2.30;;
47539;SDS011;33280;52.152;21.052;2023-07-29T13:41:22;2.38;;;2.17;;
47539;SDS011;33280;52.152;21.052;2023-07-29T13:43:49;2.30;;;2.10;;
47539;SDS011;33280;52.152;21.052;2023-07-29T13:46:16;11.43;;;6.03;;
47539;SDS011;33280;52.152;21.052;2023-07-29T13:48:46;3.00;;;2.60;;
47539;SDS011;33280;52.152;21.052;2023-07-29T13:51:13;2.47;;;1.85;;
47539;SDS011;33280;52.152;21.052;2023-07-29T13:53:40;3.10;;;2.40;;
47539;SDS011;33280;52.152;21.052;2023-07-29T13:56:08;7.22;;;2.45;;
47539;SDS011;33280;52.152;21.052;2023-07-29T13:58:35;2.30;;;2.10;;
47539;SDS011;33280;52.152;21.052;2023-07-29T14:01:02;2.90;;;2.60;;
47539;SDS011;33280;52.152;21.052;2023-07-29T14:03:29;3.00;;;2.10;;
47539;SDS011;33280;52.152;21.052;2023-07-29T14:05:56;2.80;;;2.13;;
47539;SDS011;33280;52.152;21.052;2023-07-29T14:08:23;4.20;;;2.10;;
47539;SDS011;33280;52.152;21.052;2023-07-29T14:10:50;3.72;;;2.00;;
47539;SDS011;33280;52.152;21.052;2023-07-29T14:13:17;2.60;;;2.17;;
47539;SDS011;33280;52.152;21.052;2023-07-29T14:15:44;2.25;;;2.00;;
47539;SDS011;33280;52.152;21.052;2023-07-29T14:18:11;1.98;;;1.77;;
47539;SDS011;33280;52.152;21.052;2023-07-29T14:20:39;1.85;;;1.75;;
47539;SDS011;33280;52.152;21.052;2023-07-29T14:23:06;3.08;;;1.90;;
47539;SDS011;33280;52.152;21.052;2023-07-29T14:25:33;5.35;;;2.10;;
47539;SDS011;33280;52.152;21.052;2023-07-29T14:28:00;2.83;;;2.38;;
47539;SDS011;33280;52.152;21.052;2023-07-29T14:30:27;2.60;;;2.38;;
47539;SDS011;33280;52.152;21.052;2023-07-29T14:32:54;2.15;;;1.95;;
47539;SDS011;33280;52.152;21.052;2023-07-29T14:35:21;2.22;;;1.90;;
47539;SDS011;33280;52.152;21.052;2023-07-29T14:37:48;4.07;;;2.05;;
47539;SDS011;33280;52.152;21.052;2023-07-29T14:40:15;10.73;;;2.47;;
47539;SDS011;33280;52.152;21.052;2023-07-29T14:42:42;2.42;;;2.00;;
47539;SDS011;33280;52.152;21.052;2023-07-29T14:45:10;2.00;;;1.83;;
47539;SDS011;33280;52.152;21.052;2023-07-29T14:47:37;3.40;;;1.85;;
47539;SDS011;33280;52.152;21.052;2023-07-29T14:50:04;2.60;;;1.95;;
47539;SDS011;33280;52.152;21.052;2023-07-29T14:52:31;4.97;;;2.13;;
47539;SDS011;33280;52.152;21.052;2023-07-29T14:54:58;3.50;;;2.10;;
47539;SDS011;33280;52.152;21.052;2023-07-29T14:57:25;2.72;;;2.20;;
47539;SDS011;33280;52.152;21.052;2023-07-29T14:59:52;3.22;;;2.17;;
47539;SDS011;33280;52.152;21.052;2023-07-29T15:02:19;3.75;;;1.85;;
47539;SDS011;33280;52.152;21.052;2023-07-29T15:04:46;2.65;;;2.17;;
47539;SDS011;33280;52.152;21.052;2023-07-29T15:07:13;4.90;;;2.30;;
47539;SDS011;33280;52.152;21.052;2023-07-29T15:09:40;2.65;;;1.95;;
47539;SDS011;33280;52.152;21.052;2023-07-29T15:12:07;2.60;;;1.90;;
47539;SDS011;33280;52.152;21.052;2023-07-29T15:14:34;3.20;;;2.08;;
47539;SDS011;33280;52.152;21.052;2023-07-29T15:17:02;2.22;;;2.03;;
47539;SDS011;33280;52.152;21.052;2023-07-29T15:19:29;2.50;;;1.95;;
47539;SDS011;33280;52.152;21.052;2023-07-29T15:21:56;4.88;;;2.13;;
47539;SDS011;33280;52.152;21.052;2023-07-29T15:24:23;2.22;;;2.03;;
47539;SDS011;33280;52.152;21.052;2023-07-29T15:26:50;2.33;;;2.03;;
47539;SDS011;33280;52.152;21.052;2023-07-29T15:45:22;2.45;;;1.90;;
47539;SDS011;33280;52.152;21.052;2023-07-29T15:47:50;2.80;;;2.28;;
47539;SDS011;33280;52.152;21.052;2023-07-29T15:50:17;2.30;;;2.10;;
47539;SDS011;33280;52.152;21.052;2023-07-29T15:52:44;2.30;;;2.10;;
47539;SDS011;33280;52.152;21.052;2023-07-29T15:55:14;2.95;;;2.20;;
47539;SDS011;33280;52.152;21.052;2023-07-29T15:57:50;3.03;;;2.45;;
47539;SDS011;33280;52.152;21.052;2023-07-29T16:00:17;3.78;;;2.58;;
47539;SDS011;33280;52.152;21.052;2023-07-29T18:58:01;5.90;;;4.10;;
47539;SDS011;33280;52.152;21.052;2023-07-29T19:04:53;4.57;;;3.83;;
47539;SDS011;33280;52.152;21.052;2023-07-29T19:07:21;4.90;;;3.90;;
47539;SDS011;33280;52.152;21.052;2023-07-29T19:10:00;5.65;;;4.22;;
47539;SDS011;33280;52.152;21.052;2023-07-29T19:15:33;5.05;;;4.40;;
47539;SDS011;33280;52.152;21.052;2023-07-29T19:18:10;7.07;;;4.20;;
47539;SDS011;33280;52.152;21.052;2023-07-29T19:20:52;4.40;;;4.00;;
47539;SDS011;33280;52.152;21.052;2023-07-29T19:23:20;7.10;;;5.00;;
47539;SDS011;33280;52.152;21.052;2023-07-29T19:25:47;5.80;;;4.90;;
47539;SDS011;33280;52.152;21.052;2023-07-29T19:46:29;6.93;;;4.80;;
47539;SDS011;33280;52.152;21.052;2023-07-29T20:21:28;6.50;;;4.73;;
47539;SDS011;33280;52.152;21.052;2023-07-29T20:24:19;6.23;;;4.90;;
47539;SDS011;33280;52.152;21.052;2023-07-29T20:26:46;9.45;;;5.25;;
47539;SDS011;33280;52.152;21.052;2023-07-29T20:29:13;5.97;;;5.03;;
47539;SDS011;33280;52.152;21.052;2023-07-29T20:31:40;5.87;;;4.50;;
47539;SDS011;33280;52.152;21.052;2023-07-29T20:34:07;5.80;;;4.93;;
47539;SDS011;33280;52.152;21.052;2023-07-29T20:36:34;8.63;;;4.60;;
47539;SDS011;33280;52.152;21.052;2023-07-29T20:39:01;8.17;;;5.10;;
47539;SDS011;33280;52.152;21.052;2023-07-29T20:41:29;6.20;;;5.10;;
47539;SDS011;33280;52.152;21.052;2023-07-29T20:43:56;6.13;;;4.87;;
47539;SDS011;33280;52.152;21.052;2023-07-29T20:46:23;6.60;;;5.20;;
47539;SDS011;33280;52.152;21.052;2023-07-29T20:48:54;5.67;;;4.67;;
47539;SDS011;33280;52.152;21.052;2023-07-29T20:51:21;5.13;;;4.50;;
47539;SDS011;33280;52.152;21.052;2023-07-29T21:10:24;6.27;;;4.60;;
47539;SDS011;33280;52.152;21.052;2023-07-29T21:19:11;11.77;;;4.17;;
47539;SDS011;33280;52.152;21.052;2023-07-29T22:06:21;6.37;;;4.13;;
47539;SDS011;33280;52.152;21.052;2023-07-29T22:08:59;10.57;;;4.70;;
47539;SDS011;33280;52.152;21.052;2023-07-29T22:11:26;8.20;;;4.83;;
47539;SDS011;33280;52.152;21.052;2023-07-29T22:13:55;8.50;;;4.93;;
47539;SDS011;33280;52.152;21.052;2023-07-29T22:16:26;9.50;;;4.53;;
47539;SDS011;33280;52.152;21.052;2023-07-29T22:19:07;10.83;;;4.60;;
